KCAK/CAK METAR and TAF weather

Enter ICAO airport designator
Station Type Date Time Source
KCAK METAR 2019/04/26 04:13 UTC NOAA

KCAK 260413Z 12007KT 4SM RA BR SCT032 BKN050 OVC080 16/13 A2962 RMK AO2 LTG DSNT S P0014 T01610133 $


Station Type Date Time Source
KCAK Decoded METAR 2019/04/26 04:13 UTC NOAA

AKRON-CANTON REGIONAL AIRPORT , OH, United States (KCAK) 40-55N 081-27W 377M
Apr 26, 2019 - 12:13 AM EDT / 2019.04.26 0413 UTC
Wind: from the ESE (120 degrees) at 8 MPH (7 KT):0
Visibility: 4 mile(s):0
Sky conditions: overcast
Weather: rain; mist; Lightning observed
Precipitation last hour: 0.14 inches
Temperature: 61.0 F (16.1 C)
Dew Point: 55.9 F (13.3 C)
Relative Humidity: 83%
Pressure (altimeter): 29.62 in. Hg (1003 hPa)
ob: KCAK 260413Z 12007KT 4SM RA BR SCT032 BKN050 OVC080 16/13 A2962 RMK AO2 LTG DSNT S P0014 T01610133
cycle: 4

Station Type Date Time Source
KCAK TAF 2019/04/26 04:45 UTC NOAA

TAF
AMD KCAK 260343Z 2604/2624 15008KT 5SM -SHRA BR VCTS SCT008 OVC035CB
TEMPO 2604/2608 2SM -TSRA BR OVC008CB
FM261300 20010KT 4SM -SHRA BR OVC008
FM261900 31020G30KT P6SM VCSH OVC015
FM262000 31022G32KT P6SM BKN020 OVC030

Example: see airport list